Tumtum, WA (99034)

3:00 PM PDT on July 23, 2016 (GMT -0700)
291 @ 231 | | Change Station

Elev 1594 ft 47.85 °N, 117.85 °W | Updated 2 seconds ago

Scattered Clouds
Scattered Clouds
80.1 °F
Feels Like 79 °F
N
2.5
Wind Variable Wind from WNW
Gusts 2.5 mph

Today
High -- | Low -- °F
--% Chance of Precip.
Yesterday
High -- | Low -- °F
Precip. -- in
Pressure 30.15 in
Visibility 10.0 miles
Clouds Scattered Clouds 6500 ft
Heat Index 79 °F
Dew Point 48 °F
Humidity 32%
Rainfall 0.00 in
Snow Depth Not available.
5:17 AM 8:37 PM
Waning Gibbous, 82% visible
METAR KDEW 232153Z AUTO VRB03KT 10SM SCT065 23/06 A3016 RMK AO2 SLP208 T02280061
Pressure 30.15 in
Visibility 10.0 miles
Clouds Scattered Clouds 6500 ft
Heat Index 79 °F
Dew Point 48 °F
Humidity 32%
Rainfall 0.00 in
Snow Depth Not available.
5:17 AM 8:37 PM
Waning Gibbous, 82% visible
METAR KDEW 232153Z AUTO VRB03KT 10SM SCT065 23/06 A3016 RMK AO2 SLP208 T02280061

10-Day Weather Forecast

Almanac

Astronomy

Jul. 23, 2016 Rise Set
Actual Time
Civil Twilight
Nautical Twilight
Astronomical Twilight
Moon
Length of Visible Light
Length of Day
Tomorrow will be .
, % of the Moon is Illuminated

Today's Extremes

State Highs State Lows

Community

WunderPhotos

Upload Photos

1,926,934 photos uploaded!

WunderBlog® & News

Nearby

Air Quality

  Air Quality AQ Index Pollutant
Not available.

Snow Depth

Station Depth Elevation

Earthquake Activity

City Distance Mag. Time & Date
Minimum magnitude displayed is 2.5.

Coastal Water Temperatures

Place Temperature

Stations

Nearby Weather Stations

Station Location Temp. Windchill Dew Point Humidity Wind Precip. Elev Updated Type
                   

Watches & Warnings

There are currently no watches in effect.